createdAt,value
2019-04-03T00:01:16.805Z,6.30
2019-04-03T00:03:47.148Z,6.20
2019-04-03T00:06:17.941Z,6.00
2019-04-03T00:08:48.409Z,5.80
2019-04-03T00:11:18.887Z,5.70
2019-04-03T00:13:49.467Z,5.70
2019-04-03T00:16:20.303Z,5.60
2019-04-03T00:18:50.848Z,5.50
2019-04-03T00:21:21.274Z,5.50
2019-04-03T00:23:52.615Z,5.50
2019-04-03T00:26:22.736Z,5.50
2019-04-03T00:28:53.173Z,5.40
2019-04-03T00:31:23.976Z,5.50
2019-04-03T00:33:54.414Z,5.40
2019-04-03T00:36:24.862Z,5.40
2019-04-03T00:38:55.482Z,5.40
2019-04-03T00:41:26.023Z,5.40
2019-04-03T00:43:56.514Z,5.30
2019-04-03T00:46:27.498Z,5.20
2019-04-03T00:48:58.187Z,5.20
2019-04-03T00:51:28.679Z,5.10
2019-04-03T00:53:59.250Z,5.10
2019-04-03T00:56:29.823Z,5.00
2019-04-03T00:59:00.320Z,4.90
2019-04-03T01:01:30.978Z,4.80
2019-04-03T01:04:01.610Z,4.70
2019-04-03T01:06:32.537Z,4.70
2019-04-03T01:09:03.098Z,4.70
2019-04-03T01:11:33.691Z,4.90
2019-04-03T01:14:04.439Z,5.00
2019-04-03T01:16:34.887Z,5.10
2019-04-03T01:19:06.300Z,5.10
2019-04-03T01:21:37.268Z,5.00
2019-04-03T01:24:08.284Z,5.00
2019-04-03T01:26:40.097Z,5.00
2019-04-03T01:29:08.151Z,5.00
2019-04-03T01:31:38.435Z,5.00
2019-04-03T01:34:09.131Z,4.90
2019-04-03T01:36:39.630Z,4.90
2019-04-03T01:39:09.987Z,4.80
2019-04-03T01:41:40.455Z,4.80
2019-04-03T01:44:10.939Z,4.80
2019-04-03T01:46:41.244Z,4.80
2019-04-03T01:49:11.740Z,4.60
2019-04-03T01:51:42.346Z,4.60
2019-04-03T01:54:12.874Z,4.50
2019-04-03T01:56:43.255Z,4.50
2019-04-03T01:59:14.072Z,4.50
2019-04-03T02:01:44.532Z,4.40
2019-04-03T02:06:44.827Z,4.40
2019-04-03T02:09:16.046Z,4.40
2019-04-03T02:11:45.850Z,4.30
2019-04-03T02:14:31.339Z,4.30
2019-04-03T02:17:01.866Z,4.30
2019-04-03T02:19:32.166Z,4.30
2019-04-03T02:22:02.616Z,4.30
2019-04-03T02:24:33.370Z,4.30
2019-04-03T02:27:04.034Z,4.20
2019-04-03T02:29:34.498Z,4.10
2019-04-03T02:32:05.138Z,4.00
2019-04-03T02:34:36.264Z,3.90
2019-04-03T02:37:06.756Z,4.10
2019-04-03T02:39:37.113Z,4.20
2019-04-03T02:42:08.680Z,4.30
2019-04-03T02:44:38.398Z,4.40
2019-04-03T02:47:08.888Z,4.40
2019-04-03T02:49:41.507Z,4.30
2019-04-03T02:52:10.092Z,4.30
2019-04-03T02:54:41.637Z,4.20
2019-04-03T02:57:12.196Z,4.20
2019-04-03T02:59:43.030Z,4.20
2019-04-03T03:02:13.737Z,4.30
2019-04-03T03:04:43.967Z,4.20
2019-04-03T03:07:14.492Z,4.10
2019-04-03T03:09:46.636Z,4.10
2019-04-03T03:12:16.281Z,4.10
2019-04-03T03:14:47.040Z,4.00
2019-04-03T03:17:21.684Z,4.00
2019-04-03T03:19:49.119Z,4.20
2019-04-03T03:22:19.951Z,4.20
2019-04-03T03:24:50.705Z,4.20
2019-04-03T03:27:21.235Z,4.20
2019-04-03T03:32:29.524Z,4.20
2019-04-03T03:35:05.123Z,4.30
2019-04-03T03:37:23.089Z,4.30
2019-04-03T03:39:53.748Z,4.20
2019-04-03T03:42:24.884Z,4.20
2019-04-03T03:44:55.929Z,4.10
2019-04-03T03:47:27.175Z,4.20
2019-04-03T03:49:57.342Z,4.30
2019-04-03T03:52:27.923Z,4.30
2019-04-03T03:54:58.525Z,4.40
2019-04-03T03:57:29.225Z,4.30
2019-04-03T03:59:59.800Z,4.20
2019-04-03T04:02:30.692Z,4.30
2019-04-03T04:05:01.712Z,4.20
2019-04-03T04:07:36.293Z,4.30
2019-04-03T04:10:03.025Z,4.30
2019-04-03T04:12:33.344Z,4.40
2019-04-03T04:15:04.130Z,4.50
2019-04-03T04:17:34.802Z,4.60
2019-04-03T04:20:06.251Z,4.60
2019-04-03T04:22:36.356Z,4.60
2019-04-03T04:25:07.235Z,4.60
2019-04-03T04:27:38.995Z,4.60
2019-04-03T04:30:08.762Z,4.50
2019-04-03T04:32:39.059Z,4.60
2019-04-03T04:35:10.924Z,4.50
2019-04-03T04:37:40.738Z,4.60
2019-04-03T04:40:11.000Z,4.60
2019-04-03T04:45:11.863Z,4.60
2019-04-03T04:47:41.539Z,4.70
2019-04-03T04:50:12.006Z,4.70
2019-04-03T04:52:42.642Z,4.80
2019-04-03T04:55:13.146Z,4.80
2019-04-03T04:57:43.513Z,4.90
2019-04-03T05:00:15.590Z,4.90
2019-04-03T05:02:44.989Z,5.00
2019-04-03T05:05:15.619Z,5.10
2019-04-03T05:07:46.046Z,5.10
2019-04-03T05:10:18.005Z,5.20
2019-04-03T05:12:47.060Z,5.30
2019-04-03T05:15:19.509Z,5.40
2019-04-03T05:17:50.504Z,5.50
2019-04-03T05:20:20.208Z,5.60
2019-04-03T05:22:49.651Z,5.70
2019-04-03T05:25:20.202Z,5.80
2019-04-03T05:27:50.695Z,5.90
2019-04-03T05:30:31.738Z,6.00
2019-04-03T05:33:02.324Z,6.20
2019-04-03T05:35:33.254Z,6.30
2019-04-03T05:38:04.334Z,6.40
2019-04-03T05:40:34.674Z,6.50
2019-04-03T05:43:05.371Z,6.60
2019-04-03T05:45:36.058Z,6.60
2019-04-03T05:48:12.052Z,6.70
2019-04-03T05:50:37.203Z,6.70
2019-04-03T05:53:08.020Z,6.80
2019-04-03T05:55:40.532Z,6.90
2019-04-03T05:58:08.904Z,6.90
2019-04-03T06:00:39.288Z,7.10
2019-04-03T06:03:10.008Z,7.10
2019-04-03T06:05:41.838Z,7.20
2019-04-03T06:08:10.926Z,7.30
2019-04-03T06:10:41.522Z,7.30
2019-04-03T06:13:12.271Z,7.30
2019-04-03T06:15:42.798Z,7.30
2019-04-03T06:18:13.236Z,7.40
2019-04-03T06:20:43.980Z,7.50
2019-04-03T06:23:14.277Z,7.60
2019-04-03T06:25:44.808Z,7.60
2019-04-03T06:28:14.962Z,7.70
2019-04-03T06:30:45.454Z,7.80
2019-04-03T06:33:15.978Z,7.90
2019-04-03T06:35:46.735Z,8.00
2019-04-03T06:38:17.067Z,8.10
2019-04-03T06:40:47.594Z,8.20
2019-04-03T06:43:18.329Z,8.30
2019-04-03T06:45:48.506Z,8.30
2019-04-03T06:48:18.875Z,8.30
2019-04-03T06:50:49.350Z,8.30
2019-04-03T06:53:19.851Z,8.30
2019-04-03T06:55:50.198Z,8.40
2019-04-03T06:58:20.607Z,8.50
2019-04-03T07:03:22.540Z,8.60
2019-04-03T07:08:30.026Z,8.60
2019-04-03T07:10:55.080Z,8.70
2019-04-03T07:13:22.395Z,8.70
2019-04-03T07:15:52.917Z,8.80
2019-04-03T07:18:23.753Z,8.90
2019-04-03T07:20:54.059Z,9.10
2019-04-03T07:23:25.447Z,9.20
2019-04-03T07:25:55.830Z,9.20
2019-04-03T07:28:26.549Z,9.50
2019-04-03T07:30:56.918Z,9.50
2019-04-03T07:33:28.689Z,9.70
2019-04-03T07:35:58.280Z,9.80
2019-04-03T07:38:28.907Z,9.80
2019-04-03T07:40:59.210Z,9.80
2019-04-03T07:43:29.714Z,10.00
2019-04-03T07:46:00.058Z,10.20
2019-04-03T07:48:33.025Z,10.60
2019-04-03T07:51:01.051Z,10.90
2019-04-03T07:53:32.018Z,11.10
2019-04-03T07:56:06.579Z,11.30
2019-04-03T07:58:37.454Z,11.50
2019-04-03T08:01:09.862Z,11.80
2019-04-03T08:03:38.314Z,11.90
2019-04-03T08:06:08.823Z,12.10
2019-04-03T08:08:39.544Z,12.30
2019-04-03T08:11:10.089Z,12.40
2019-04-03T08:13:40.226Z,12.40
2019-04-03T08:16:10.795Z,12.60
2019-04-03T08:18:41.298Z,12.80
2019-04-03T08:21:11.695Z,12.80
2019-04-03T08:23:42.021Z,13.00
2019-04-03T08:26:12.683Z,13.20
2019-04-03T08:28:43.002Z,13.50
2019-04-03T08:31:13.503Z,13.70
2019-04-03T08:33:44.050Z,13.90
2019-04-03T08:36:24.319Z,14.00
2019-04-03T08:38:45.526Z,14.40
2019-04-03T08:41:15.587Z,14.70
2019-04-03T08:43:46.102Z,14.80
2019-04-03T08:46:16.527Z,14.80
2019-04-03T08:48:46.994Z,14.90
2019-04-03T08:51:17.661Z,15.00
2019-04-03T08:53:48.154Z,15.10
2019-04-03T08:56:18.480Z,15.30
2019-04-03T08:58:48.829Z,15.50
2019-04-03T09:01:19.614Z,15.60
2019-04-03T09:03:49.829Z,15.60
2019-04-03T09:06:22.161Z,15.70
2019-04-03T09:08:50.973Z,15.80
2019-04-03T09:11:21.445Z,15.80
2019-04-03T09:13:54.376Z,15.60
2019-04-03T09:16:22.378Z,15.60
2019-04-03T09:18:52.850Z,15.60
2019-04-03T09:21:23.331Z,15.60
2019-04-03T09:23:56.691Z,15.60
2019-04-03T09:26:24.633Z,15.60
2019-04-03T09:28:55.147Z,15.60
2019-04-03T09:31:25.455Z,15.40
2019-04-03T09:33:56.995Z,15.50
2019-04-03T09:36:26.431Z,15.40
2019-04-03T09:38:57.109Z,15.60
2019-04-03T09:41:27.390Z,15.70
2019-04-03T09:43:57.846Z,15.90
2019-04-03T09:46:30.530Z,16.00
2019-04-03T09:49:00.918Z,16.00
2019-04-03T09:51:31.420Z,16.10
2019-04-03T09:54:01.918Z,16.10
2019-04-03T09:59:02.163Z,16.80
2019-04-03T10:01:32.494Z,17.00
2019-04-03T10:04:03.099Z,16.90
2019-04-03T10:06:33.774Z,17.20
2019-04-03T10:09:04.590Z,17.30
2019-04-03T10:11:37.933Z,17.50
2019-04-03T10:14:05.815Z,17.70
2019-04-03T10:16:36.444Z,17.90
2019-04-03T10:19:07.062Z,17.70
2019-04-03T10:21:37.433Z,18.00
2019-04-03T10:24:07.916Z,18.00
2019-04-03T10:26:40.539Z,18.00
2019-04-03T10:29:08.763Z,18.00
2019-04-03T10:31:39.388Z,18.00
2019-04-03T10:34:09.767Z,18.20
2019-04-03T10:36:42.058Z,18.10
2019-04-03T10:39:11.407Z,18.20
2019-04-03T10:41:41.919Z,18.60
2019-04-03T10:44:12.690Z,18.90
2019-04-03T10:46:42.874Z,18.80
2019-04-03T10:49:13.774Z,18.90
2019-04-03T10:51:44.137Z,19.10
2019-04-03T10:54:14.615Z,19.10
2019-04-03T10:56:45.183Z,19.20
2019-04-03T10:59:18.060Z,19.40
2019-04-03T11:01:46.354Z,19.30
2019-04-03T11:04:16.718Z,19.40
2019-04-03T11:06:47.283Z,19.40
2019-04-03T11:09:17.779Z,19.40
2019-04-03T11:11:48.165Z,19.60
2019-04-03T11:14:18.752Z,19.60
2019-04-03T11:16:49.306Z,19.70
2019-04-03T11:19:20.274Z,19.90
2019-04-03T11:21:50.908Z,20.20
2019-04-03T11:24:21.368Z,20.30
2019-04-03T11:26:52.500Z,19.90
2019-04-03T11:29:22.867Z,19.90
2019-04-03T11:31:53.356Z,19.70
2019-04-03T11:34:23.586Z,19.40
2019-04-03T11:36:54.077Z,19.60
2019-04-03T11:39:24.654Z,19.90
2019-04-03T11:44:24.803Z,20.30
2019-04-03T11:46:55.107Z,20.40
2019-04-03T11:49:26.131Z,20.40
2019-04-03T11:51:56.517Z,20.70
2019-04-03T11:54:26.903Z,20.90
2019-04-03T11:56:57.967Z,20.90
2019-04-03T11:59:28.392Z,20.90
2019-04-03T12:01:58.644Z,20.90
2019-04-03T12:04:29.126Z,20.70
2019-04-03T12:09:31.478Z,20.70
2019-04-03T12:12:00.066Z,20.80
2019-04-03T12:17:00.272Z,20.80
2019-04-03T12:19:30.528Z,20.60
2019-04-03T12:22:00.982Z,20.90
2019-04-03T12:24:31.644Z,20.90
2019-04-03T12:27:02.131Z,20.80
2019-04-03T12:29:32.509Z,20.80
2019-04-03T12:32:03.949Z,20.50
2019-04-03T12:34:36.729Z,20.70
2019-04-03T12:37:03.969Z,21.10
2019-04-03T12:39:34.273Z,21.30
2019-04-03T12:42:05.086Z,21.40
2019-04-03T12:44:35.600Z,21.50
2019-04-03T12:47:12.192Z,21.70
2019-04-03T12:49:36.842Z,21.80
2019-04-03T12:52:07.034Z,21.60
2019-04-03T12:57:43.422Z,21.40
2019-04-03T13:00:14.114Z,21.50
2019-04-03T13:02:44.571Z,21.30
2019-04-03T13:05:15.347Z,21.60
2019-04-03T13:07:47.194Z,22.10
2019-04-03T13:10:16.847Z,22.00
2019-04-03T13:12:46.623Z,21.70
2019-04-03T13:15:17.240Z,21.70
2019-04-03T13:20:17.728Z,21.40
2019-04-03T13:22:48.122Z,21.60
2019-04-03T13:25:20.993Z,21.50
2019-04-03T13:27:49.719Z,21.10
2019-04-03T13:30:19.971Z,21.40
2019-04-03T13:32:58.982Z,21.70
2019-04-03T13:35:21.915Z,22.00
2019-04-03T13:37:54.384Z,22.30
2019-04-03T13:40:22.616Z,22.50
2019-04-03T13:42:53.042Z,22.30
2019-04-03T13:45:23.637Z,22.30
2019-04-03T13:47:54.283Z,21.50
2019-04-03T13:50:24.754Z,21.40
2019-04-03T13:52:55.059Z,21.30
2019-04-03T13:57:55.271Z,21.40
2019-04-03T14:02:57.709Z,21.50
2019-04-03T14:05:27.820Z,21.20
2019-04-03T14:07:56.669Z,21.30
2019-04-03T14:10:27.860Z,21.20
2019-04-03T14:12:57.797Z,21.50
2019-04-03T14:15:28.163Z,21.40
2019-04-03T14:17:59.244Z,21.90
2019-04-03T14:20:29.110Z,22.40
2019-04-03T14:23:02.700Z,22.20
2019-04-03T14:25:36.408Z,21.90
2019-04-03T14:28:02.808Z,21.90
2019-04-03T14:30:31.375Z,22.00
2019-04-03T14:33:02.086Z,22.10
2019-04-03T14:35:48.971Z,22.00
2019-04-03T14:38:03.214Z,22.00
2019-04-03T14:43:04.014Z,22.20
2019-04-03T14:45:34.474Z,21.80
2019-04-03T14:48:05.027Z,21.80
2019-04-03T14:50:38.133Z,22.20
2019-04-03T14:53:06.400Z,22.80
2019-04-03T14:55:46.627Z,22.90
2019-04-03T14:58:07.836Z,22.90
2019-04-03T15:00:38.511Z,22.50
2019-04-03T15:03:08.967Z,22.40
2019-04-03T15:05:42.504Z,22.50
2019-04-03T15:08:10.271Z,22.40
2019-04-03T15:10:40.572Z,22.60
2019-04-03T15:13:13.727Z,22.40
2019-04-03T15:15:41.747Z,22.30
2019-04-03T15:18:12.118Z,22.40
2019-04-03T15:23:12.354Z,22.10
2019-04-03T15:25:43.645Z,22.00
2019-04-03T15:28:13.338Z,22.20
2019-04-03T15:30:44.239Z,22.30
2019-04-03T15:33:14.391Z,22.30
2019-04-03T15:35:44.755Z,22.40
2019-04-03T15:38:17.044Z,22.30
2019-04-03T15:40:45.926Z,21.70
2019-04-03T15:43:17.275Z,21.70
2019-04-03T15:45:47.060Z,21.70
2019-04-03T15:48:20.939Z,21.40
2019-04-03T15:50:48.870Z,21.60
2019-04-03T15:53:19.286Z,21.70
2019-04-03T15:55:50.090Z,21.40
2019-04-03T15:58:20.167Z,21.50
2019-04-03T16:03:20.779Z,20.70
2019-04-03T16:05:50.987Z,20.20
2019-04-03T16:08:21.592Z,19.90
2019-04-03T16:10:52.034Z,19.70
2019-04-03T16:13:22.767Z,19.30
2019-04-03T16:15:56.330Z,19.20
2019-04-03T16:18:24.126Z,19.00
2019-04-03T16:20:54.977Z,18.80
2019-04-03T16:23:25.276Z,18.70
2019-04-03T16:25:55.806Z,18.50
2019-04-03T16:28:26.486Z,18.40
2019-04-03T16:30:56.989Z,18.30
2019-04-03T16:33:27.269Z,18.30
2019-04-03T16:35:58.526Z,18.50
2019-04-03T16:38:29.701Z,18.50
2019-04-03T16:40:59.231Z,18.60
2019-04-03T16:43:29.609Z,18.60
2019-04-03T16:46:00.079Z,18.50
2019-04-03T16:48:31.186Z,18.50
2019-04-03T16:51:01.543Z,18.40
2019-04-03T16:53:32.064Z,18.20
2019-04-03T16:56:05.049Z,18.00
2019-04-03T16:58:32.750Z,17.70
2019-04-03T17:01:03.463Z,17.50
2019-04-03T17:06:03.755Z,17.20
2019-04-03T17:08:34.054Z,17.10
2019-04-03T17:11:04.952Z,17.00
2019-04-03T17:13:35.318Z,16.90
2019-04-03T17:16:06.973Z,16.80
2019-04-03T17:21:06.531Z,16.70
2019-04-03T17:23:37.058Z,16.60
2019-04-03T17:26:09.739Z,16.50
2019-04-03T17:28:40.536Z,16.40
2019-04-03T17:31:09.058Z,16.30
2019-04-03T17:33:39.215Z,16.20
2019-04-03T17:36:09.727Z,16.10
2019-04-03T17:38:40.293Z,16.10
2019-04-03T17:43:43.110Z,15.90
2019-04-03T17:46:11.296Z,15.80
2019-04-03T17:48:41.975Z,15.70
2019-04-03T17:51:12.454Z,15.70
2019-04-03T17:53:42.935Z,15.60
2019-04-03T17:56:13.550Z,15.70
2019-04-03T17:58:44.046Z,15.60
2019-04-03T18:01:14.471Z,15.60
2019-04-03T18:03:44.970Z,15.60
2019-04-03T18:06:15.226Z,15.50
2019-04-03T18:08:45.646Z,15.40
2019-04-03T18:11:16.090Z,15.40
2019-04-03T18:13:48.573Z,15.30
2019-04-03T18:16:17.271Z,15.30
2019-04-03T18:18:49.900Z,15.20
2019-04-03T18:21:18.195Z,15.20
2019-04-03T18:23:48.483Z,15.10
2019-04-03T18:26:18.855Z,15.10
2019-04-03T18:28:49.366Z,15.00
2019-04-03T18:31:19.789Z,15.00
2019-04-03T18:33:50.109Z,15.00
2019-04-03T18:36:20.494Z,14.90
2019-04-03T18:38:50.914Z,14.90
2019-04-03T18:41:21.495Z,14.90
2019-04-03T18:43:54.186Z,14.80
2019-04-03T18:46:31.924Z,14.70
2019-04-03T18:48:57.076Z,14.70
2019-04-03T18:51:23.763Z,14.60
2019-04-03T18:53:54.094Z,14.50
2019-04-03T18:56:25.006Z,14.40
2019-04-03T18:58:55.700Z,14.30
2019-04-03T19:01:26.047Z,14.20
2019-04-03T19:03:56.434Z,14.20
2019-04-03T19:06:27.232Z,14.10
2019-04-03T19:09:09.344Z,14.00
2019-04-03T19:11:28.418Z,13.90
2019-04-03T19:13:58.684Z,13.80
2019-04-03T19:16:34.243Z,13.80
2019-04-03T19:21:29.362Z,13.80
2019-04-03T19:24:00.034Z,13.70
2019-04-03T19:26:31.796Z,13.60
2019-04-03T19:29:01.283Z,13.60
2019-04-03T19:31:31.816Z,13.60
2019-04-03T19:34:02.382Z,13.60
2019-04-03T19:36:32.742Z,13.50
2019-04-03T19:39:04.823Z,13.50
2019-04-03T19:41:34.468Z,13.50
2019-04-03T19:46:34.426Z,13.50
2019-04-03T19:49:05.057Z,13.40
2019-04-03T19:51:37.203Z,13.30
2019-04-03T19:55:09.063Z,13.30
2019-04-03T19:57:39.674Z,13.30
2019-04-03T20:00:10.460Z,13.10
2019-04-03T20:02:43.039Z,13.20
2019-04-03T20:05:11.821Z,13.10
2019-04-03T20:07:42.059Z,13.00
2019-04-03T20:10:12.599Z,12.90
2019-04-03T20:12:42.853Z,12.80
2019-04-03T20:15:13.267Z,12.70
2019-04-03T20:17:43.531Z,12.60
2019-04-03T20:20:14.147Z,12.60
2019-04-03T20:22:44.500Z,12.60
2019-04-03T20:25:15.303Z,12.60
2019-04-03T20:27:47.370Z,12.70
2019-04-03T20:30:16.279Z,12.80
2019-04-03T20:32:46.627Z,12.80
2019-04-03T20:35:18.652Z,12.80
2019-04-03T20:37:47.196Z,12.80
2019-04-03T20:40:17.696Z,12.70
2019-04-03T20:42:48.255Z,12.80
2019-04-03T20:45:19.185Z,12.90
2019-04-03T20:47:49.311Z,12.90
2019-04-03T20:50:20.201Z,13.00
2019-04-03T20:52:50.934Z,13.00
2019-04-03T20:55:21.135Z,12.90
2019-04-03T20:57:55.700Z,12.90
2019-04-03T21:00:22.739Z,12.90
2019-04-03T21:02:53.010Z,12.80
2019-04-03T21:05:23.563Z,12.70
2019-04-03T21:07:55.714Z,12.70
2019-04-03T21:10:24.347Z,12.60
2019-04-03T21:12:54.667Z,12.60
2019-04-03T21:15:26.111Z,12.50
2019-04-03T21:17:56.315Z,12.40
2019-04-03T21:20:26.798Z,12.40
2019-04-03T21:22:57.643Z,12.40
2019-04-03T21:25:28.235Z,12.50
2019-04-03T21:27:58.939Z,12.50
2019-04-03T21:30:29.398Z,12.40
2019-04-03T21:33:00.513Z,12.40
2019-04-03T21:35:30.594Z,12.50
2019-04-03T21:38:00.876Z,12.60
2019-04-03T21:40:31.103Z,12.60
2019-04-03T21:43:01.259Z,12.50
2019-04-03T21:45:31.405Z,12.40
2019-04-03T21:48:02.011Z,12.40
2019-04-03T21:50:32.255Z,12.30
2019-04-03T21:53:02.463Z,12.20
2019-04-03T21:55:34.725Z,12.20
2019-04-03T21:58:03.268Z,12.10
2019-04-03T22:01:38.848Z,12.20
2019-04-03T22:04:09.452Z,12.20
2019-04-03T22:06:39.809Z,12.30
2019-04-03T22:09:11.665Z,12.30
2019-04-03T22:11:42.168Z,12.30
2019-04-03T22:14:12.693Z,12.20
2019-04-03T22:16:43.332Z,12.30
2019-04-03T22:19:14.060Z,12.20
2019-04-03T22:21:44.994Z,12.10
2019-04-03T22:24:15.650Z,12.00
2019-04-03T22:26:46.239Z,12.10
2019-04-03T22:29:19.791Z,12.00
2019-04-03T22:31:47.316Z,11.90
2019-04-03T22:34:17.975Z,11.90
2019-04-03T22:36:48.620Z,11.90
2019-04-03T22:39:19.147Z,11.90
2019-04-03T22:41:49.534Z,11.80
2019-04-03T22:44:20.203Z,11.80
2019-04-03T22:46:53.724Z,11.80
2019-04-03T22:51:51.241Z,11.80
2019-04-03T22:54:21.786Z,11.80
2019-04-03T22:56:52.404Z,11.70
2019-04-03T22:59:24.315Z,11.60
2019-04-03T23:01:53.303Z,11.60
2019-04-03T23:04:23.955Z,11.60
2019-04-03T23:06:54.522Z,11.50
2019-04-03T23:09:25.578Z,11.50
2019-04-03T23:11:56.186Z,11.40
2019-04-03T23:14:26.735Z,11.40
2019-04-03T23:16:57.048Z,11.30
2019-04-03T23:19:27.734Z,11.30
2019-04-03T23:24:28.870Z,11.10
2019-04-03T23:26:58.756Z,11.10
2019-04-03T23:29:29.407Z,11.10
2019-04-03T23:32:00.012Z,11.20
2019-04-03T23:34:30.580Z,11.20
2019-04-03T23:37:00.979Z,11.20
2019-04-03T23:39:31.514Z,11.10
2019-04-03T23:42:02.129Z,11.00
2019-04-03T23:44:32.830Z,11.10
2019-04-03T23:47:03.103Z,11.10
2019-04-03T23:49:33.531Z,11.00
2019-04-03T23:52:04.002Z,10.90
2019-04-03T23:54:34.579Z,10.80
2019-04-03T23:57:05.198Z,10.70
2019-04-03T23:59:36.055Z,10.40
